sensor_id;sensor_type;location;lat;lon;timestamp;temperature;humidity
18797;DHT22;9526;52.612;13.300;2023-02-28T00:02:12;0.60;99.90
18797;DHT22;9526;52.612;13.300;2023-02-28T00:04:36;0.60;99.90
18797;DHT22;9526;52.612;13.300;2023-02-28T00:06:59;0.50;99.90
18797;DHT22;9526;52.612;13.300;2023-02-28T00:09:23;0.50;99.90
18797;DHT22;9526;52.612;13.300;2023-02-28T00:11:47;0.40;99.90
18797;DHT22;9526;52.612;13.300;2023-02-28T00:14:12;0.40;99.90
18797;DHT22;9526;52.612;13.300;2023-02-28T00:16:35;0.40;99.90
18797;DHT22;9526;52.612;13.300;2023-02-28T00:18:59;0.30;99.90
18797;DHT22;9526;52.612;13.300;2023-02-28T00:21:22;0.30;99.90
18797;DHT22;9526;52.612;13.300;2023-02-28T00:23:47;0.20;99.90
18797;DHT22;9526;52.612;13.300;2023-02-28T00:26:11;0.20;99.90
18797;DHT22;9526;52.612;13.300;2023-02-28T00:28:38;0.10;99.90
18797;DHT22;9526;52.612;13.300;2023-02-28T00:31:03;0.10;99.90
18797;DHT22;9526;52.612;13.300;2023-02-28T00:33:29;0.00;99.90
18797;DHT22;9526;52.612;13.300;2023-02-28T00:36:01;0.10;99.90
18797;DHT22;9526;52.612;13.300;2023-02-28T00:38:26;0.00;99.90
18797;DHT22;9526;52.612;13.300;2023-02-28T00:40:50;-0.10;99.90
18797;DHT22;9526;52.612;13.300;2023-02-28T00:43:13;-0.20;99.90
18797;DHT22;9526;52.612;13.300;2023-02-28T00:45:39;-0.20;99.90
18797;DHT22;9526;52.612;13.300;2023-02-28T00:48:04;-0.10;99.90
18797;DHT22;9526;52.612;13.300;2023-02-28T00:50:28;-0.20;99.90
18797;DHT22;9526;52.612;13.300;2023-02-28T00:52:52;-0.20;99.90
18797;DHT22;9526;52.612;13.300;2023-02-28T00:55:15;-0.30;99.90
18797;DHT22;9526;52.612;13.300;2023-02-28T00:57:40;-0.30;99.90
18797;DHT22;9526;52.612;13.300;2023-02-28T01:00:05;-0.30;99.90
18797;DHT22;9526;52.612;13.300;2023-02-28T01:02:30;-0.40;99.90
18797;DHT22;9526;52.612;13.300;2023-02-28T01:04:55;-0.50;99.90
18797;DHT22;9526;52.612;13.300;2023-02-28T01:07:19;-0.50;99.90
18797;DHT22;9526;52.612;13.300;2023-02-28T01:09:43;-0.60;99.90
18797;DHT22;9526;52.612;13.300;2023-02-28T01:12:07;-0.60;99.90
18797;DHT22;9526;52.612;13.300;2023-02-28T01:14:31;-0.60;99.90
18797;DHT22;9526;52.612;13.300;2023-02-28T01:16:55;-0.60;99.90
18797;DHT22;9526;52.612;13.300;2023-02-28T01:19:19;-0.70;99.90
18797;DHT22;9526;52.612;13.300;2023-02-28T01:21:44;-0.70;99.90
18797;DHT22;9526;52.612;13.300;2023-02-28T01:24:08;-0.80;99.90
18797;DHT22;9526;52.612;13.300;2023-02-28T01:26:32;-0.80;99.90
18797;DHT22;9526;52.612;13.300;2023-02-28T01:28:56;-0.80;99.90
18797;DHT22;9526;52.612;13.300;2023-02-28T01:31:21;-0.80;99.90
18797;DHT22;9526;52.612;13.300;2023-02-28T01:33:46;-0.80;99.90
18797;DHT22;9526;52.612;13.300;2023-02-28T01:36:12;-0.90;99.90
18797;DHT22;9526;52.612;13.300;2023-02-28T01:38:38;-0.90;99.90
18797;DHT22;9526;52.612;13.300;2023-02-28T01:41:02;-0.90;99.90
18797;DHT22;9526;52.612;13.300;2023-02-28T01:43:28;-1.00;99.90
18797;DHT22;9526;52.612;13.300;2023-02-28T01:45:55;-1.00;99.90
18797;DHT22;9526;52.612;13.300;2023-02-28T01:48:22;-1.00;99.90
18797;DHT22;9526;52.612;13.300;2023-02-28T01:50:49;-1.10;99.90
18797;DHT22;9526;52.612;13.300;2023-02-28T01:53:16;-1.10;99.90
18797;DHT22;9526;52.612;13.300;2023-02-28T01:55:47;-1.10;99.90
18797;DHT22;9526;52.612;13.300;2023-02-28T01:58:11;-1.20;99.90
18797;DHT22;9526;52.612;13.300;2023-02-28T02:00:35;-1.20;99.90
18797;DHT22;9526;52.612;13.300;2023-02-28T02:03:06;-1.20;99.90
18797;DHT22;9526;52.612;13.300;2023-02-28T02:05:32;-1.20;99.90
18797;DHT22;9526;52.612;13.300;2023-02-28T02:08:00;-1.20;99.90
18797;DHT22;9526;52.612;13.300;2023-02-28T02:10:31;-1.30;99.90
18797;DHT22;9526;52.612;13.300;2023-02-28T02:13:22;-1.30;99.90
18797;DHT22;9526;52.612;13.300;2023-02-28T02:16:00;-1.30;99.90
18797;DHT22;9526;52.612;13.300;2023-02-28T02:18:32;-1.40;99.90
18797;DHT22;9526;52.612;13.300;2023-02-28T02:21:28;-1.40;99.90
18797;DHT22;9526;52.612;13.300;2023-02-28T02:24:53;-1.40;99.90
18797;DHT22;9526;52.612;13.300;2023-02-28T02:27:45;-1.40;99.90
18797;DHT22;9526;52.612;13.300;2023-02-28T02:30:54;-1.50;99.90
18797;DHT22;9526;52.612;13.300;2023-02-28T02:36:48;-1.60;99.90
18797;DHT22;9526;52.612;13.300;2023-02-28T02:39:16;-1.60;99.90
18797;DHT22;9526;52.612;13.300;2023-02-28T02:41:47;-1.60;99.90
18797;DHT22;9526;52.612;13.300;2023-02-28T02:44:15;-1.60;99.90
18797;DHT22;9526;52.612;13.300;2023-02-28T02:46:43;-1.60;99.90
18797;DHT22;9526;52.612;13.300;2023-02-28T02:49:09;-1.60;99.90
18797;DHT22;9526;52.612;13.300;2023-02-28T02:51:38;-1.60;99.90
18797;DHT22;9526;52.612;13.300;2023-02-28T02:54:08;-1.70;99.90
18797;DHT22;9526;52.612;13.300;2023-02-28T02:56:36;-1.70;99.90
18797;DHT22;9526;52.612;13.300;2023-02-28T02:59:04;-1.70;99.90
18797;DHT22;9526;52.612;13.300;2023-02-28T03:01:32;-1.70;99.90
18797;DHT22;9526;52.612;13.300;2023-02-28T03:04:00;-1.80;99.90
18797;DHT22;9526;52.612;13.300;2023-02-28T03:06:26;-1.80;99.90
18797;DHT22;9526;52.612;13.300;2023-02-28T03:08:49;-1.80;99.90
18797;DHT22;9526;52.612;13.300;2023-02-28T03:11:15;-1.90;99.90
18797;DHT22;9526;52.612;13.300;2023-02-28T03:13:53;-1.90;99.90
18797;DHT22;9526;52.612;13.300;2023-02-28T03:16:33;-1.90;99.90
18797;DHT22;9526;52.612;13.300;2023-02-28T03:19:24;-1.80;99.90
18797;DHT22;9526;52.612;13.300;2023-02-28T03:22:07;-2.00;99.90
18797;DHT22;9526;52.612;13.300;2023-02-28T03:24:48;-1.90;99.90
18797;DHT22;9526;52.612;13.300;2023-02-28T03:27:18;-1.90;99.90
18797;DHT22;9526;52.612;13.300;2023-02-28T03:29:50;-2.00;99.90
18797;DHT22;9526;52.612;13.300;2023-02-28T03:32:19;-2.00;99.90
18797;DHT22;9526;52.612;13.300;2023-02-28T03:34:49;-2.10;99.90
18797;DHT22;9526;52.612;13.300;2023-02-28T03:37:20;-2.10;99.90
18797;DHT22;9526;52.612;13.300;2023-02-28T03:39:49;-2.10;99.90
18797;DHT22;9526;52.612;13.300;2023-02-28T03:42:20;-2.10;99.90
18797;DHT22;9526;52.612;13.300;2023-02-28T03:44:49;-2.00;99.90
18797;DHT22;9526;52.612;13.300;2023-02-28T03:47:19;-2.10;99.90
18797;DHT22;9526;52.612;13.300;2023-02-28T03:49:50;-2.20;99.90
18797;DHT22;9526;52.612;13.300;2023-02-28T03:52:19;-2.10;99.90
18797;DHT22;9526;52.612;13.300;2023-02-28T03:54:48;-2.20;99.90
18797;DHT22;9526;52.612;13.300;2023-02-28T03:57:20;-2.10;99.90
18797;DHT22;9526;52.612;13.300;2023-02-28T03:59:49;-2.30;99.90
18797;DHT22;9526;52.612;13.300;2023-02-28T04:02:14;-2.30;99.90
18797;DHT22;9526;52.612;13.300;2023-02-28T04:04:38;-2.30;99.90
18797;DHT22;9526;52.612;13.300;2023-02-28T04:07:11;-2.30;99.90
18797;DHT22;9526;52.612;13.300;2023-02-28T04:09:35;-2.20;99.90
18797;DHT22;9526;52.612;13.300;2023-02-28T04:11:59;-2.30;99.90
18797;DHT22;9526;52.612;13.300;2023-02-28T04:14:24;-2.40;99.90
18797;DHT22;9526;52.612;13.300;2023-02-28T04:16:48;-2.30;99.90
18797;DHT22;9526;52.612;13.300;2023-02-28T04:19:13;-2.30;99.90
18797;DHT22;9526;52.612;13.300;2023-02-28T04:21:39;-2.40;99.90
18797;DHT22;9526;52.612;13.300;2023-02-28T04:24:04;-2.50;99.90
18797;DHT22;9526;52.612;13.300;2023-02-28T04:26:29;-2.50;99.90
18797;DHT22;9526;52.612;13.300;2023-02-28T04:28:53;-2.50;99.90
18797;DHT22;9526;52.612;13.300;2023-02-28T04:31:18;-2.50;99.90
18797;DHT22;9526;52.612;13.300;2023-02-28T04:33:41;-2.40;99.90
18797;DHT22;9526;52.612;13.300;2023-02-28T04:36:07;-2.50;99.90
18797;DHT22;9526;52.612;13.300;2023-02-28T04:38:33;-2.50;99.90
18797;DHT22;9526;52.612;13.300;2023-02-28T04:40:57;-2.50;99.90
18797;DHT22;9526;52.612;13.300;2023-02-28T04:43:21;-2.60;99.90
18797;DHT22;9526;52.612;13.300;2023-02-28T04:45:45;-2.60;99.90
18797;DHT22;9526;52.612;13.300;2023-02-28T04:48:10;-2.60;99.90
18797;DHT22;9526;52.612;13.300;2023-02-28T04:50:34;-2.60;99.90
18797;DHT22;9526;52.612;13.300;2023-02-28T04:52:57;-2.60;99.90
18797;DHT22;9526;52.612;13.300;2023-02-28T04:55:21;-2.50;99.90
18797;DHT22;9526;52.612;13.300;2023-02-28T04:57:44;-2.70;99.90
18797;DHT22;9526;52.612;13.300;2023-02-28T05:00:09;-2.70;99.90
18797;DHT22;9526;52.612;13.300;2023-02-28T05:02:34;-2.70;99.90
18797;DHT22;9526;52.612;13.300;2023-02-28T05:04:59;-2.60;99.90
18797;DHT22;9526;52.612;13.300;2023-02-28T05:07:23;-2.80;99.90
18797;DHT22;9526;52.612;13.300;2023-02-28T05:09:47;-2.80;99.90
18797;DHT22;9526;52.612;13.300;2023-02-28T05:12:10;-2.70;99.90
18797;DHT22;9526;52.612;13.300;2023-02-28T05:14:34;-2.60;99.90
18797;DHT22;9526;52.612;13.300;2023-02-28T05:16:58;-2.80;99.90
18797;DHT22;9526;52.612;13.300;2023-02-28T05:19:22;-2.80;99.90
18797;DHT22;9526;52.612;13.300;2023-02-28T05:21:51;-2.80;99.90
18797;DHT22;9526;52.612;13.300;2023-02-28T05:24:16;-2.80;99.90
18797;DHT22;9526;52.612;13.300;2023-02-28T05:26:44;-2.90;99.90
18797;DHT22;9526;52.612;13.300;2023-02-28T05:29:08;-2.90;99.90
18797;DHT22;9526;52.612;13.300;2023-02-28T05:31:32;-2.90;99.90
18797;DHT22;9526;52.612;13.300;2023-02-28T05:33:55;-2.80;99.90
18797;DHT22;9526;52.612;13.300;2023-02-28T05:36:19;-2.90;99.90
18797;DHT22;9526;52.612;13.300;2023-02-28T05:38:46;-3.00;99.90
18797;DHT22;9526;52.612;13.300;2023-02-28T05:41:11;-3.00;99.90
18797;DHT22;9526;52.612;13.300;2023-02-28T05:43:35;-3.00;99.90
18797;DHT22;9526;52.612;13.300;2023-02-28T05:45:59;-3.00;99.90
18797;DHT22;9526;52.612;13.300;2023-02-28T05:48:22;-3.00;99.90
18797;DHT22;9526;52.612;13.300;2023-02-28T05:50:47;-2.90;99.90
18797;DHT22;9526;52.612;13.300;2023-02-28T05:53:11;-2.90;99.90
18797;DHT22;9526;52.612;13.300;2023-02-28T05:55:36;-3.10;99.90
18797;DHT22;9526;52.612;13.300;2023-02-28T05:58:00;-3.10;99.90
18797;DHT22;9526;52.612;13.300;2023-02-28T06:00:24;-3.10;99.90
18797;DHT22;9526;52.612;13.300;2023-02-28T06:02:48;-3.10;99.90
18797;DHT22;9526;52.612;13.300;2023-02-28T06:05:14;-3.00;99.90
18797;DHT22;9526;52.612;13.300;2023-02-28T06:07:39;-3.10;99.90
18797;DHT22;9526;52.612;13.300;2023-02-28T06:10:03;-3.10;99.90
18797;DHT22;9526;52.612;13.300;2023-02-28T06:12:28;-3.10;99.90
18797;DHT22;9526;52.612;13.300;2023-02-28T06:14:52;-3.00;99.90
18797;DHT22;9526;52.612;13.300;2023-02-28T06:17:15;-3.00;99.90
18797;DHT22;9526;52.612;13.300;2023-02-28T06:19:39;-3.10;99.90
18797;DHT22;9526;52.612;13.300;2023-02-28T06:22:03;-3.10;99.90
18797;DHT22;9526;52.612;13.300;2023-02-28T06:24:27;-3.10;99.90
18797;DHT22;9526;52.612;13.300;2023-02-28T06:26:54;-3.00;99.90
18797;DHT22;9526;52.612;13.300;2023-02-28T06:29:19;-3.10;99.90
18797;DHT22;9526;52.612;13.300;2023-02-28T06:31:43;-3.00;99.90
18797;DHT22;9526;52.612;13.300;2023-02-28T06:34:06;-3.00;99.90
18797;DHT22;9526;52.612;13.300;2023-02-28T06:36:30;-3.00;99.90
18797;DHT22;9526;52.612;13.300;2023-02-28T06:38:54;-3.00;99.90
18797;DHT22;9526;52.612;13.300;2023-02-28T06:41:18;-2.90;99.90
18797;DHT22;9526;52.612;13.300;2023-02-28T06:43:42;-2.90;99.90
18797;DHT22;9526;52.612;13.300;2023-02-28T06:46:08;-2.90;99.90
18797;DHT22;9526;52.612;13.300;2023-02-28T06:48:35;-2.90;99.90
18797;DHT22;9526;52.612;13.300;2023-02-28T06:51:04;-2.80;99.90
18797;DHT22;9526;52.612;13.300;2023-02-28T06:53:28;-2.80;99.90
18797;DHT22;9526;52.612;13.300;2023-02-28T06:55:52;-2.80;99.90
18797;DHT22;9526;52.612;13.300;2023-02-28T06:58:16;-2.60;99.90
18797;DHT22;9526;52.612;13.300;2023-02-28T07:00:41;-2.60;99.90
18797;DHT22;9526;52.612;13.300;2023-02-28T07:03:07;-2.60;99.90
18797;DHT22;9526;52.612;13.300;2023-02-28T07:05:30;-2.40;99.90
18797;DHT22;9526;52.612;13.300;2023-02-28T07:07:54;-2.50;99.90
18797;DHT22;9526;52.612;13.300;2023-02-28T07:10:19;-2.40;99.90
18797;DHT22;9526;52.612;13.300;2023-02-28T07:12:42;-2.30;99.90
18797;DHT22;9526;52.612;13.300;2023-02-28T07:15:07;-2.20;99.90
18797;DHT22;9526;52.612;13.300;2023-02-28T07:17:32;-2.10;99.90
18797;DHT22;9526;52.612;13.300;2023-02-28T07:19:57;-2.10;99.90
18797;DHT22;9526;52.612;13.300;2023-02-28T07:22:21;-2.00;99.90
18797;DHT22;9526;52.612;13.300;2023-02-28T07:24:44;-1.90;99.90
18797;DHT22;9526;52.612;13.300;2023-02-28T07:27:08;-1.90;99.90
18797;DHT22;9526;52.612;13.300;2023-02-28T07:29:32;-1.80;99.90
18797;DHT22;9526;52.612;13.300;2023-02-28T07:31:55;-1.70;99.90
18797;DHT22;9526;52.612;13.300;2023-02-28T07:34:19;-1.60;99.90
18797;DHT22;9526;52.612;13.300;2023-02-28T07:36:44;-1.40;99.90
18797;DHT22;9526;52.612;13.300;2023-02-28T07:39:08;-1.40;99.90
18797;DHT22;9526;52.612;13.300;2023-02-28T07:41:32;-1.20;99.90
18797;DHT22;9526;52.612;13.300;2023-02-28T07:43:59;-1.20;99.90
18797;DHT22;9526;52.612;13.300;2023-02-28T07:46:23;-1.10;99.90
18797;DHT22;9526;52.612;13.300;2023-02-28T07:48:49;-1.00;99.90
18797;DHT22;9526;52.612;13.300;2023-02-28T07:51:13;-1.00;99.90
18797;DHT22;9526;52.612;13.300;2023-02-28T07:53:38;-0.80;99.90
18797;DHT22;9526;52.612;13.300;2023-02-28T07:56:02;-0.80;99.90
18797;DHT22;9526;52.612;13.300;2023-02-28T07:58:27;-0.60;99.90
18797;DHT22;9526;52.612;13.300;2023-02-28T08:00:51;-0.40;99.90
18797;DHT22;9526;52.612;13.300;2023-02-28T08:03:14;-0.20;99.90
18797;DHT22;9526;52.612;13.300;2023-02-28T08:05:39;-0.10;99.90
18797;DHT22;9526;52.612;13.300;2023-02-28T08:08:03;0.10;99.90
18797;DHT22;9526;52.612;13.300;2023-02-28T08:10:28;0.20;99.90
18797;DHT22;9526;52.612;13.300;2023-02-28T08:12:51;0.30;99.90
18797;DHT22;9526;52.612;13.300;2023-02-28T08:15:15;0.40;99.90
18797;DHT22;9526;52.612;13.300;2023-02-28T08:17:39;0.50;99.90
18797;DHT22;9526;52.612;13.300;2023-02-28T08:20:03;0.60;99.90
18797;DHT22;9526;52.612;13.300;2023-02-28T08:22:27;0.70;99.90
18797;DHT22;9526;52.612;13.300;2023-02-28T08:24:50;0.90;99.90
18797;DHT22;9526;52.612;13.300;2023-02-28T08:27:15;1.10;99.90
18797;DHT22;9526;52.612;13.300;2023-02-28T08:29:39;1.30;99.90
18797;DHT22;9526;52.612;13.300;2023-02-28T08:32:03;1.40;99.90
18797;DHT22;9526;52.612;13.300;2023-02-28T08:34:31;1.60;99.90
18797;DHT22;9526;52.612;13.300;2023-02-28T08:36:55;1.80;99.90
18797;DHT22;9526;52.612;13.300;2023-02-28T08:39:18;2.00;99.90
18797;DHT22;9526;52.612;13.300;2023-02-28T08:41:42;2.20;99.90
18797;DHT22;9526;52.612;13.300;2023-02-28T08:44:10;2.40;99.90
18797;DHT22;9526;52.612;13.300;2023-02-28T08:46:33;2.70;99.90
18797;DHT22;9526;52.612;13.300;2023-02-28T08:48:57;3.30;99.90
18797;DHT22;9526;52.612;13.300;2023-02-28T08:51:23;3.90;99.90
18797;DHT22;9526;52.612;13.300;2023-02-28T08:53:49;4.50;99.90
18797;DHT22;9526;52.612;13.300;2023-02-28T08:56:14;5.00;99.90
18797;DHT22;9526;52.612;13.300;2023-02-28T08:58:39;5.40;99.90
18797;DHT22;9526;52.612;13.300;2023-02-28T09:01:10;5.90;99.90
18797;DHT22;9526;52.612;13.300;2023-02-28T09:03:35;6.40;99.90
18797;DHT22;9526;52.612;13.300;2023-02-28T09:06:00;6.50;99.90
18797;DHT22;9526;52.612;13.300;2023-02-28T09:08:24;6.90;99.90
18797;DHT22;9526;52.612;13.300;2023-02-28T09:10:49;7.20;99.90
18797;DHT22;9526;52.612;13.300;2023-02-28T09:13:12;7.50;99.90
18797;DHT22;9526;52.612;13.300;2023-02-28T09:15:37;7.90;99.90
18797;DHT22;9526;52.612;13.300;2023-02-28T09:18:02;8.30;99.10
18797;DHT22;9526;52.612;13.300;2023-02-28T09:20:26;8.50;99.90
18797;DHT22;9526;52.612;13.300;2023-02-28T09:22:49;8.90;99.00
18797;DHT22;9526;52.612;13.300;2023-02-28T09:25:13;9.30;99.90
18797;DHT22;9526;52.612;13.300;2023-02-28T09:27:37;9.50;94.60
18797;DHT22;9526;52.612;13.300;2023-02-28T09:30:03;9.70;91.80
18797;DHT22;9526;52.612;13.300;2023-02-28T09:32:27;9.90;96.20
18797;DHT22;9526;52.612;13.300;2023-02-28T09:34:52;10.00;86.80
18797;DHT22;9526;52.612;13.300;2023-02-28T09:37:15;10.10;91.30
18797;DHT22;9526;52.612;13.300;2023-02-28T09:39:39;10.20;92.70
18797;DHT22;9526;52.612;13.300;2023-02-28T09:42:03;10.30;86.60
18797;DHT22;9526;52.612;13.300;2023-02-28T09:44:33;10.60;91.40
18797;DHT22;9526;52.612;13.300;2023-02-28T09:47:04;10.60;86.60
18797;DHT22;9526;52.612;13.300;2023-02-28T09:49:37;10.30;89.50
18797;DHT22;9526;52.612;13.300;2023-02-28T09:52:09;10.80;91.10
18797;DHT22;9526;52.612;13.300;2023-02-28T09:54:34;11.10;84.20
18797;DHT22;9526;52.612;13.300;2023-02-28T09:57:01;11.20;82.90
18797;DHT22;9526;52.612;13.300;2023-02-28T09:59:37;11.00;80.40
18797;DHT22;9526;52.612;13.300;2023-02-28T10:02:13;10.80;83.00
18797;DHT22;9526;52.612;13.300;2023-02-28T10:04:58;10.90;82.10
18797;DHT22;9526;52.612;13.300;2023-02-28T10:07:37;11.40;78.50
18797;DHT22;9526;52.612;13.300;2023-02-28T10:10:19;11.40;81.10
18797;DHT22;9526;52.612;13.300;2023-02-28T10:12:45;11.40;80.40
18797;DHT22;9526;52.612;13.300;2023-02-28T10:15:14;11.60;77.10
18797;DHT22;9526;52.612;13.300;2023-02-28T10:17:42;11.20;73.50
18797;DHT22;9526;52.612;13.300;2023-02-28T10:20:27;11.00;75.10
18797;DHT22;9526;52.612;13.300;2023-02-28T10:22:59;10.90;82.60
18797;DHT22;9526;52.612;13.300;2023-02-28T10:25:29;11.30;75.40
18797;DHT22;9526;52.612;13.300;2023-02-28T10:27:54;11.00;75.30
18797;DHT22;9526;52.612;13.300;2023-02-28T10:30:21;11.30;80.30
18797;DHT22;9526;52.612;13.300;2023-02-28T10:32:49;11.80;78.00
18797;DHT22;9526;52.612;13.300;2023-02-28T10:35:17;12.00;72.70
18797;DHT22;9526;52.612;13.300;2023-02-28T10:37:44;11.60;72.40
18797;DHT22;9526;52.612;13.300;2023-02-28T10:40:28;11.50;74.90
18797;DHT22;9526;52.612;13.300;2023-02-28T10:42:56;11.80;71.90
18797;DHT22;9526;52.612;13.300;2023-02-28T10:45:21;11.70;74.30
18797;DHT22;9526;52.612;13.300;2023-02-28T10:47:54;11.60;72.10
18797;DHT22;9526;52.612;13.300;2023-02-28T10:50:43;11.60;72.50
18797;DHT22;9526;52.612;13.300;2023-02-28T10:53:22;11.00;70.50
18797;DHT22;9526;52.612;13.300;2023-02-28T10:56:05;11.00;72.50
18797;DHT22;9526;52.612;13.300;2023-02-28T10:58:47;11.00;74.40
18797;DHT22;9526;52.612;13.300;2023-02-28T11:01:14;11.30;73.90
18797;DHT22;9526;52.612;13.300;2023-02-28T11:03:39;10.60;70.60
18797;DHT22;9526;52.612;13.300;2023-02-28T11:06:07;10.60;75.10
18797;DHT22;9526;52.612;13.300;2023-02-28T11:08:44;10.90;73.60
18797;DHT22;9526;52.612;13.300;2023-02-28T11:11:11;10.80;76.20
18797;DHT22;9526;52.612;13.300;2023-02-28T11:13:36;10.50;75.10
18797;DHT22;9526;52.612;13.300;2023-02-28T11:16:03;10.60;73.10
18797;DHT22;9526;52.612;13.300;2023-02-28T11:18:30;10.60;74.60
18797;DHT22;9526;52.612;13.300;2023-02-28T11:21:01;10.40;74.10
18797;DHT22;9526;52.612;13.300;2023-02-28T11:23:27;10.30;77.80
18797;DHT22;9526;52.612;13.300;2023-02-28T11:25:55;10.30;77.50
18797;DHT22;9526;52.612;13.300;2023-02-28T11:28:27;10.00;73.60
18797;DHT22;9526;52.612;13.300;2023-02-28T11:31:02;9.90;80.80
18797;DHT22;9526;52.612;13.300;2023-02-28T11:33:29;10.00;79.00
18797;DHT22;9526;52.612;13.300;2023-02-28T11:35:57;10.10;78.60
18797;DHT22;9526;52.612;13.300;2023-02-28T11:38:24;10.20;81.40
18797;DHT22;9526;52.612;13.300;2023-02-28T11:40:54;9.90;75.60
18797;DHT22;9526;52.612;13.300;2023-02-28T11:43:33;9.90;77.70
18797;DHT22;9526;52.612;13.300;2023-02-28T11:46:15;9.70;80.90
18797;DHT22;9526;52.612;13.300;2023-02-28T11:48:54;9.70;80.60
18797;DHT22;9526;52.612;13.300;2023-02-28T11:51:23;9.70;77.70
18797;DHT22;9526;52.612;13.300;2023-02-28T11:54:12;9.70;75.80
18797;DHT22;9526;52.612;13.300;2023-02-28T11:56:49;9.70;77.10
18797;DHT22;9526;52.612;13.300;2023-02-28T11:59:34;9.60;76.10
18797;DHT22;9526;52.612;13.300;2023-02-28T12:02:25;9.50;78.50
18797;DHT22;9526;52.612;13.300;2023-02-28T12:04:58;9.30;79.40
18797;DHT22;9526;52.612;13.300;2023-02-28T12:07:37;9.30;81.90
18797;DHT22;9526;52.612;13.300;2023-02-28T12:10:16;9.00;78.10
18797;DHT22;9526;52.612;13.300;2023-02-28T12:12:51;8.80;81.50
18797;DHT22;9526;52.612;13.300;2023-02-28T12:18:26;9.00;90.50
18797;DHT22;9526;52.612;13.300;2023-02-28T12:21:04;8.90;79.00
18797;DHT22;9526;52.612;13.300;2023-02-28T12:26:46;8.40;81.40
18797;DHT22;9526;52.612;13.300;2023-02-28T12:29:16;8.30;88.70
18797;DHT22;9526;52.612;13.300;2023-02-28T12:31:46;7.90;80.20
18797;DHT22;9526;52.612;13.300;2023-02-28T12:34:17;7.90;91.50
18797;DHT22;9526;52.612;13.300;2023-02-28T12:36:44;7.90;84.70
18797;DHT22;9526;52.612;13.300;2023-02-28T12:39:11;7.80;86.10
18797;DHT22;9526;52.612;13.300;2023-02-28T12:41:42;7.70;88.50
18797;DHT22;9526;52.612;13.300;2023-02-28T12:44:11;7.60;88.30
18797;DHT22;9526;52.612;13.300;2023-02-28T12:46:40;7.60;87.90
18797;DHT22;9526;52.612;13.300;2023-02-28T12:49:09;7.70;90.80
18797;DHT22;9526;52.612;13.300;2023-02-28T12:51:35;7.50;87.10
18797;DHT22;9526;52.612;13.300;2023-02-28T12:54:11;7.50;90.90
18797;DHT22;9526;52.612;13.300;2023-02-28T12:56:43;7.50;89.10
18797;DHT22;9526;52.612;13.300;2023-02-28T12:59:17;7.30;89.50
18797;DHT22;9526;52.612;13.300;2023-02-28T13:02:00;7.30;91.20
18797;DHT22;9526;52.612;13.300;2023-02-28T13:04:45;7.20;91.20
18797;DHT22;9526;52.612;13.300;2023-02-28T13:10:39;7.10;91.40
18797;DHT22;9526;52.612;13.300;2023-02-28T13:13:04;7.10;91.80
18797;DHT22;9526;52.612;13.300;2023-02-28T13:15:28;7.00;90.30
18797;DHT22;9526;52.612;13.300;2023-02-28T13:17:55;7.10;90.10
18797;DHT22;9526;52.612;13.300;2023-02-28T13:20:21;7.10;91.20
18797;DHT22;9526;52.612;13.300;2023-02-28T13:22:48;7.10;96.00
18797;DHT22;9526;52.612;13.300;2023-02-28T13:31:27;6.80;91.50
18797;DHT22;9526;52.612;13.300;2023-02-28T13:34:22;6.90;92.90
18797;DHT22;9526;52.612;13.300;2023-02-28T13:36:46;6.80;90.90
18797;DHT22;9526;52.612;13.300;2023-02-28T13:39:47;6.80;92.40
18797;DHT22;9526;52.612;13.300;2023-02-28T13:42:33;6.70;91.40
18797;DHT22;9526;52.612;13.300;2023-02-28T13:45:22;6.80;91.90
18797;DHT22;9526;52.612;13.300;2023-02-28T13:47:52;6.70;93.70
18797;DHT22;9526;52.612;13.300;2023-02-28T13:50:24;6.80;93.30
18797;DHT22;9526;52.612;13.300;2023-02-28T13:53:21;6.70;92.30
18797;DHT22;9526;52.612;13.300;2023-02-28T13:56:10;6.60;92.10
18797;DHT22;9526;52.612;13.300;2023-02-28T13:58:53;6.70;92.70
18797;DHT22;9526;52.612;13.300;2023-02-28T14:01:33;6.70;91.50
18797;DHT22;9526;52.612;13.300;2023-02-28T14:04:33;6.60;91.00
18797;DHT22;9526;52.612;13.300;2023-02-28T14:07:09;6.70;91.80
18797;DHT22;9526;52.612;13.300;2023-02-28T14:09:44;6.60;91.30
18797;DHT22;9526;52.612;13.300;2023-02-28T14:15:30;6.50;89.40
18797;DHT22;9526;52.612;13.300;2023-02-28T14:18:03;6.50;91.00
18797;DHT22;9526;52.612;13.300;2023-02-28T14:20:31;6.40;91.10
18797;DHT22;9526;52.612;13.300;2023-02-28T14:23:04;6.50;93.50
18797;DHT22;9526;52.612;13.300;2023-02-28T14:25:35;6.50;91.20
18797;DHT22;9526;52.612;13.300;2023-02-28T14:28:13;6.40;91.70
18797;DHT22;9526;52.612;13.300;2023-02-28T14:31:04;6.50;92.10
18797;DHT22;9526;52.612;13.300;2023-02-28T14:33:40;6.40;91.20
18797;DHT22;9526;52.612;13.300;2023-02-28T14:36:18;6.50;91.70
18797;DHT22;9526;52.612;13.300;2023-02-28T14:38:48;6.50;91.00
18797;DHT22;9526;52.612;13.300;2023-02-28T14:41:20;6.40;90.80
18797;DHT22;9526;52.612;13.300;2023-02-28T14:44:13;6.40;91.10
18797;DHT22;9526;52.612;13.300;2023-02-28T14:46:39;6.40;90.40
18797;DHT22;9526;52.612;13.300;2023-02-28T14:49:04;6.40;91.40
18797;DHT22;9526;52.612;13.300;2023-02-28T14:51:29;6.30;91.40
18797;DHT22;9526;52.612;13.300;2023-02-28T14:53:59;6.30;92.50
18797;DHT22;9526;52.612;13.300;2023-02-28T14:56:35;6.30;93.10
18797;DHT22;9526;52.612;13.300;2023-02-28T14:59:00;6.20;91.90
18797;DHT22;9526;52.612;13.300;2023-02-28T15:01:25;6.20;92.50
18797;DHT22;9526;52.612;13.300;2023-02-28T15:03:57;6.20;93.40
18797;DHT22;9526;52.612;13.300;2023-02-28T15:06:23;6.20;94.10
18797;DHT22;9526;52.612;13.300;2023-02-28T15:09:08;6.20;94.70
18797;DHT22;9526;52.612;13.300;2023-02-28T15:11:39;6.10;93.90
18797;DHT22;9526;52.612;13.300;2023-02-28T15:14:04;6.10;93.90
18797;DHT22;9526;52.612;13.300;2023-02-28T15:16:31;6.00;93.50
18797;DHT22;9526;52.612;13.300;2023-02-28T15:18:59;6.00;94.10
18797;DHT22;9526;52.612;13.300;2023-02-28T15:21:25;5.90;93.60
18797;DHT22;9526;52.612;13.300;2023-02-28T15:23:53;5.90;94.20
18797;DHT22;9526;52.612;13.300;2023-02-28T15:26:21;5.90;94.10
18797;DHT22;9526;52.612;13.300;2023-02-28T15:28:49;5.80;94.60
18797;DHT22;9526;52.612;13.300;2023-02-28T15:31:21;5.80;94.60
18797;DHT22;9526;52.612;13.300;2023-02-28T15:33:52;5.70;94.50
18797;DHT22;9526;52.612;13.300;2023-02-28T15:36:18;5.80;93.90
18797;DHT22;9526;52.612;13.300;2023-02-28T15:38:44;5.70;93.80
18797;DHT22;9526;52.612;13.300;2023-02-28T15:41:24;5.70;94.50
18797;DHT22;9526;52.612;13.300;2023-02-28T15:43:49;5.70;94.70
18797;DHT22;9526;52.612;13.300;2023-02-28T15:46:41;5.60;94.90
18797;DHT22;9526;52.612;13.300;2023-02-28T15:49:14;5.60;95.20
18797;DHT22;9526;52.612;13.300;2023-02-28T15:51:41;5.60;95.70
18797;DHT22;9526;52.612;13.300;2023-02-28T15:54:06;5.50;95.70
18797;DHT22;9526;52.612;13.300;2023-02-28T15:56:33;5.50;95.90
18797;DHT22;9526;52.612;13.300;2023-02-28T15:59:01;5.50;96.10
18797;DHT22;9526;52.612;13.300;2023-02-28T16:01:28;5.40;95.50
18797;DHT22;9526;52.612;13.300;2023-02-28T16:03:56;5.40;96.00
18797;DHT22;9526;52.612;13.300;2023-02-28T16:06:42;5.40;96.30
18797;DHT22;9526;52.612;13.300;2023-02-28T16:09:09;5.30;97.60
18797;DHT22;9526;52.612;13.300;2023-02-28T16:11:39;5.20;97.60